Cordova, AK (99574)

2:01 AM AKDT on July 30, 2016 (GMT -0800)
APRSWXNET | | Change Station

Elev 13 ft 60.54 °N, 145.77 °W | Updated 54 minutes ago

Overcast
Overcast
57 °F
Feels Like 57 °F
N
2
Wind Variable Wind from NNW
Gusts 0.0 mph

Today
High -- | Low -- °F
--% Chance of Precip.
Yesterday
High -- | Low -- °F
Precip. -- in
Pressure 30.17 in
Visibility 10.0 miles
Clouds Overcast 4600 ft
Dew Point 53 °F
Humidity 88%
Rainfall in
Snow Depth Not available.
5:16 AM 10:20 PM
Waning Crescent, 14% visible
METAR PACV 300953Z 07003KT 10SM OVC046 11/09 A3016 RMK AO2 SLP214 T01060094
Pressure 30.17 in
Visibility 10.0 miles
Clouds Overcast 4600 ft
Dew Point 53 °F
Humidity 88%
Rainfall in
Snow Depth Not available.
5:16 AM 10:20 PM
Waning Crescent, 14% visible
METAR PACV 300953Z 07003KT 10SM OVC046 11/09 A3016 RMK AO2 SLP214 T01060094

10-Day Weather Forecast

Almanac

Astronomy

Jul. 30, 2016 Rise Set
Actual Time
Civil Twilight
Nautical Twilight
Astronomical Twilight
Moon
Length of Visible Light
Length of Day
Tomorrow will be .
, % of the Moon is Illuminated

Today's Extremes

State Highs State Lows

Community

WunderPhotos

Upload Photos

1,928,528 photos uploaded!

WunderBlog® & News

Nearby

Air Quality

  Air Quality AQ Index Pollutant
Not available.

Snow Depth

Station Depth Elevation

Earthquake Activity

City Distance Mag. Time & Date
Minimum magnitude displayed is 2.5.

Coastal Water Temperatures

Place Temperature

Stations

Nearby Weather Stations

Station Location Temp. Windchill Dew Point Humidity Wind Precip. Elev Updated Type
                   

Watches & Warnings

There are currently no watches in effect.